sensor_id;sensor_type;location;lat;lon;timestamp;P1;durP1;ratioP1;P2;durP2;ratioP2
27365;SDS011;14837;57.148;-2.144;2023-03-01T00:01:35;1.85;;;1.25;;
27365;SDS011;14837;57.148;-2.144;2023-03-01T00:04:02;5.05;;;1.63;;
27365;SDS011;14837;57.148;-2.144;2023-03-01T00:06:28;2.95;;;1.35;;
27365;SDS011;14837;57.148;-2.144;2023-03-01T00:08:55;2.55;;;1.00;;
27365;SDS011;14837;57.148;-2.144;2023-03-01T00:11:23;2.65;;;1.63;;
27365;SDS011;14837;57.148;-2.144;2023-03-01T00:13:51;4.28;;;1.80;;
27365;SDS011;14837;57.148;-2.144;2023-03-01T00:16:19;3.35;;;1.52;;
27365;SDS011;14837;57.148;-2.144;2023-03-01T00:18:46;2.97;;;1.60;;
27365;SDS011;14837;57.148;-2.144;2023-03-01T00:21:12;6.60;;;1.27;;
27365;SDS011;14837;57.148;-2.144;2023-03-01T00:23:39;2.40;;;0.90;;
27365;SDS011;14837;57.148;-2.144;2023-03-01T00:26:07;3.35;;;1.73;;
27365;SDS011;14837;57.148;-2.144;2023-03-01T00:28:33;6.07;;;1.30;;
27365;SDS011;14837;57.148;-2.144;2023-03-01T00:31:04;7.30;;;1.30;;
27365;SDS011;14837;57.148;-2.144;2023-03-01T00:33:30;1.98;;;1.00;;
27365;SDS011;14837;57.148;-2.144;2023-03-01T00:35:58;2.08;;;1.17;;
27365;SDS011;14837;57.148;-2.144;2023-03-01T00:38:24;3.83;;;1.10;;
27365;SDS011;14837;57.148;-2.144;2023-03-01T00:40:51;4.35;;;0.98;;
27365;SDS011;14837;57.148;-2.144;2023-03-01T00:43:18;3.63;;;1.42;;
27365;SDS011;14837;57.148;-2.144;2023-03-01T00:45:44;2.38;;;1.17;;
27365;SDS011;14837;57.148;-2.144;2023-03-01T00:48:11;5.93;;;1.92;;
27365;SDS011;14837;57.148;-2.144;2023-03-01T00:50:38;5.20;;;1.55;;
27365;SDS011;14837;57.148;-2.144;2023-03-01T00:53:05;6.53;;;2.28;;
27365;SDS011;14837;57.148;-2.144;2023-03-01T00:55:31;4.25;;;1.52;;
27365;SDS011;14837;57.148;-2.144;2023-03-01T00:57:58;7.93;;;2.13;;
27365;SDS011;14837;57.148;-2.144;2023-03-01T01:00:24;2.47;;;1.40;;
27365;SDS011;14837;57.148;-2.144;2023-03-01T01:02:53;5.30;;;1.88;;
27365;SDS011;14837;57.148;-2.144;2023-03-01T01:05:20;4.45;;;1.90;;
27365;SDS011;14837;57.148;-2.144;2023-03-01T01:07:47;3.78;;;1.20;;
27365;SDS011;14837;57.148;-2.144;2023-03-01T01:10:14;4.45;;;1.55;;
27365;SDS011;14837;57.148;-2.144;2023-03-01T01:12:44;3.03;;;1.20;;
27365;SDS011;14837;57.148;-2.144;2023-03-01T01:15:10;5.93;;;1.23;;
27365;SDS011;14837;57.148;-2.144;2023-03-01T01:17:40;1.98;;;0.90;;
27365;SDS011;14837;57.148;-2.144;2023-03-01T01:20:07;1.67;;;0.88;;
27365;SDS011;14837;57.148;-2.144;2023-03-01T01:22:33;4.60;;;1.90;;
27365;SDS011;14837;57.148;-2.144;2023-03-01T01:25:00;1.63;;;0.95;;
27365;SDS011;14837;57.148;-2.144;2023-03-01T01:27:26;1.60;;;0.85;;
27365;SDS011;14837;57.148;-2.144;2023-03-01T01:29:53;2.53;;;0.90;;
27365;SDS011;14837;57.148;-2.144;2023-03-01T01:32:19;1.85;;;1.00;;
27365;SDS011;14837;57.148;-2.144;2023-03-01T01:34:46;4.63;;;1.48;;
27365;SDS011;14837;57.148;-2.144;2023-03-01T01:37:12;2.20;;;1.00;;
27365;SDS011;14837;57.148;-2.144;2023-03-01T01:39:39;4.53;;;0.80;;
27365;SDS011;14837;57.148;-2.144;2023-03-01T01:42:05;2.75;;;0.75;;
27365;SDS011;14837;57.148;-2.144;2023-03-01T01:44:33;1.23;;;0.82;;
27365;SDS011;14837;57.148;-2.144;2023-03-01T01:47:33;3.08;;;0.90;;
27365;SDS011;14837;57.148;-2.144;2023-03-01T01:49:53;3.10;;;0.75;;
27365;SDS011;14837;57.148;-2.144;2023-03-01T01:54:50;3.17;;;0.90;;
27365;SDS011;14837;57.148;-2.144;2023-03-01T01:57:19;3.65;;;0.93;;
27365;SDS011;14837;57.148;-2.144;2023-03-01T01:59:49;1.95;;;0.63;;
27365;SDS011;14837;57.148;-2.144;2023-03-01T02:02:17;1.10;;;0.60;;
27365;SDS011;14837;57.148;-2.144;2023-03-01T02:04:44;0.80;;;0.70;;
27365;SDS011;14837;57.148;-2.144;2023-03-01T02:07:15;1.30;;;0.60;;
27365;SDS011;14837;57.148;-2.144;2023-03-01T02:09:43;4.32;;;0.85;;
27365;SDS011;14837;57.148;-2.144;2023-03-01T02:12:11;1.85;;;1.10;;
27365;SDS011;14837;57.148;-2.144;2023-03-01T02:14:38;0.77;;;0.60;;
27365;SDS011;14837;57.148;-2.144;2023-03-01T02:17:05;1.77;;;0.60;;
27365;SDS011;14837;57.148;-2.144;2023-03-01T02:27:12;0.63;;;0.52;;
27365;SDS011;14837;57.148;-2.144;2023-03-01T02:29:39;0.75;;;0.70;;
27365;SDS011;14837;57.148;-2.144;2023-03-01T02:32:05;0.75;;;0.63;;
27365;SDS011;14837;57.148;-2.144;2023-03-01T02:34:32;0.80;;;0.60;;
27365;SDS011;14837;57.148;-2.144;2023-03-01T02:37:08;4.60;;;0.88;;
27365;SDS011;14837;57.148;-2.144;2023-03-01T02:39:40;2.75;;;1.10;;
27365;SDS011;14837;57.148;-2.144;2023-03-01T02:42:13;1.17;;;0.60;;
27365;SDS011;14837;57.148;-2.144;2023-03-01T02:44:41;0.82;;;0.60;;
27365;SDS011;14837;57.148;-2.144;2023-03-01T02:47:07;1.23;;;0.70;;
27365;SDS011;14837;57.148;-2.144;2023-03-01T02:49:34;1.60;;;0.60;;
27365;SDS011;14837;57.148;-2.144;2023-03-01T02:55:14;1.83;;;1.05;;
27365;SDS011;14837;57.148;-2.144;2023-03-01T02:57:15;5.97;;;1.13;;
27365;SDS011;14837;57.148;-2.144;2023-03-01T02:59:42;4.70;;;0.80;;
27365;SDS011;14837;57.148;-2.144;2023-03-01T03:02:26;3.30;;;0.68;;
27365;SDS011;14837;57.148;-2.144;2023-03-01T03:05:09;2.65;;;1.00;;
27365;SDS011;14837;57.148;-2.144;2023-03-01T03:07:36;2.15;;;0.90;;
27365;SDS011;14837;57.148;-2.144;2023-03-01T03:10:04;2.38;;;0.88;;
27365;SDS011;14837;57.148;-2.144;2023-03-01T03:12:31;3.13;;;1.67;;
27365;SDS011;14837;57.148;-2.144;2023-03-01T03:14:58;2.10;;;1.27;;
27365;SDS011;14837;57.148;-2.144;2023-03-01T03:17:24;3.78;;;0.95;;
27365;SDS011;14837;57.148;-2.144;2023-03-01T03:19:51;2.22;;;0.75;;
27365;SDS011;14837;57.148;-2.144;2023-03-01T03:22:18;3.53;;;0.98;;
27365;SDS011;14837;57.148;-2.144;2023-03-01T03:24:44;5.50;;;1.20;;
27365;SDS011;14837;57.148;-2.144;2023-03-01T03:27:11;2.00;;;0.77;;
27365;SDS011;14837;57.148;-2.144;2023-03-01T03:29:37;2.20;;;1.10;;
27365;SDS011;14837;57.148;-2.144;2023-03-01T03:32:04;1.00;;;0.60;;
27365;SDS011;14837;57.148;-2.144;2023-03-01T03:34:30;5.28;;;1.20;;
27365;SDS011;14837;57.148;-2.144;2023-03-01T03:36:57;1.60;;;0.70;;
27365;SDS011;14837;57.148;-2.144;2023-03-01T03:39:26;2.17;;;0.90;;
27365;SDS011;14837;57.148;-2.144;2023-03-01T03:41:53;6.68;;;0.95;;
27365;SDS011;14837;57.148;-2.144;2023-03-01T03:44:20;4.60;;;0.95;;
27365;SDS011;14837;57.148;-2.144;2023-03-01T03:46:46;6.53;;;0.93;;
27365;SDS011;14837;57.148;-2.144;2023-03-01T03:49:13;1.77;;;0.70;;
27365;SDS011;14837;57.148;-2.144;2023-03-01T03:51:39;2.75;;;0.77;;
27365;SDS011;14837;57.148;-2.144;2023-03-01T03:54:06;4.38;;;0.73;;
27365;SDS011;14837;57.148;-2.144;2023-03-01T03:56:32;2.40;;;1.20;;
27365;SDS011;14837;57.148;-2.144;2023-03-01T03:58:59;4.60;;;0.90;;
27365;SDS011;14837;57.148;-2.144;2023-03-01T04:01:26;2.83;;;0.73;;
27365;SDS011;14837;57.148;-2.144;2023-03-01T04:03:52;2.40;;;1.25;;
27365;SDS011;14837;57.148;-2.144;2023-03-01T04:06:20;2.75;;;0.88;;
27365;SDS011;14837;57.148;-2.144;2023-03-01T04:08:47;4.97;;;1.23;;
27365;SDS011;14837;57.148;-2.144;2023-03-01T04:11:17;6.78;;;1.60;;
27365;SDS011;14837;57.148;-2.144;2023-03-01T04:13:53;1.70;;;0.82;;
27365;SDS011;14837;57.148;-2.144;2023-03-01T04:16:20;2.42;;;0.88;;
27365;SDS011;14837;57.148;-2.144;2023-03-01T04:18:47;1.95;;;0.82;;
27365;SDS011;14837;57.148;-2.144;2023-03-01T04:21:13;3.78;;;0.88;;
27365;SDS011;14837;57.148;-2.144;2023-03-01T04:23:40;3.55;;;1.10;;
27365;SDS011;14837;57.148;-2.144;2023-03-01T04:26:09;2.22;;;0.80;;
27365;SDS011;14837;57.148;-2.144;2023-03-01T04:28:37;3.55;;;0.77;;
27365;SDS011;14837;57.148;-2.144;2023-03-01T04:31:05;1.75;;;0.98;;
27365;SDS011;14837;57.148;-2.144;2023-03-01T04:33:51;3.55;;;0.95;;
27365;SDS011;14837;57.148;-2.144;2023-03-01T04:36:19;4.35;;;1.13;;
27365;SDS011;14837;57.148;-2.144;2023-03-01T04:38:47;1.23;;;0.70;;
27365;SDS011;14837;57.148;-2.144;2023-03-01T04:41:14;2.67;;;0.98;;
27365;SDS011;14837;57.148;-2.144;2023-03-01T04:43:41;0.73;;;0.63;;
27365;SDS011;14837;57.148;-2.144;2023-03-01T04:46:09;2.90;;;0.60;;
27365;SDS011;14837;57.148;-2.144;2023-03-01T04:48:41;1.40;;;0.50;;
27365;SDS011;14837;57.148;-2.144;2023-03-01T04:51:07;2.50;;;0.95;;
27365;SDS011;14837;57.148;-2.144;2023-03-01T04:53:35;1.17;;;0.60;;
27365;SDS011;14837;57.148;-2.144;2023-03-01T04:56:04;1.25;;;0.73;;
27365;SDS011;14837;57.148;-2.144;2023-03-01T04:58:31;0.77;;;0.50;;
27365;SDS011;14837;57.148;-2.144;2023-03-01T05:00:58;0.65;;;0.50;;
27365;SDS011;14837;57.148;-2.144;2023-03-01T05:03:24;2.30;;;0.60;;
27365;SDS011;14837;57.148;-2.144;2023-03-01T05:05:51;3.72;;;0.60;;
27365;SDS011;14837;57.148;-2.144;2023-03-01T05:08:18;1.85;;;0.93;;
27365;SDS011;14837;57.148;-2.144;2023-03-01T05:10:46;2.22;;;0.88;;
27365;SDS011;14837;57.148;-2.144;2023-03-01T05:13:15;5.50;;;1.27;;
27365;SDS011;14837;57.148;-2.144;2023-03-01T05:15:53;2.58;;;0.80;;
27365;SDS011;14837;57.148;-2.144;2023-03-01T05:18:20;2.45;;;0.90;;
27365;SDS011;14837;57.148;-2.144;2023-03-01T05:20:47;2.08;;;0.98;;
27365;SDS011;14837;57.148;-2.144;2023-03-01T05:23:13;1.23;;;0.93;;
27365;SDS011;14837;57.148;-2.144;2023-03-01T05:25:40;3.78;;;1.10;;
27365;SDS011;14837;57.148;-2.144;2023-03-01T05:28:09;3.75;;;1.38;;
27365;SDS011;14837;57.148;-2.144;2023-03-01T05:30:36;3.50;;;1.85;;
27365;SDS011;14837;57.148;-2.144;2023-03-01T05:33:05;2.85;;;1.27;;
27365;SDS011;14837;57.148;-2.144;2023-03-01T05:35:36;2.97;;;1.55;;
27365;SDS011;14837;57.148;-2.144;2023-03-01T05:38:03;3.17;;;1.02;;
27365;SDS011;14837;57.148;-2.144;2023-03-01T05:40:29;1.50;;;1.00;;
27365;SDS011;14837;57.148;-2.144;2023-03-01T05:42:56;3.45;;;0.95;;
27365;SDS011;14837;57.148;-2.144;2023-03-01T05:45:24;4.30;;;1.15;;
27365;SDS011;14837;57.148;-2.144;2023-03-01T05:47:51;6.47;;;1.30;;
27365;SDS011;14837;57.148;-2.144;2023-03-01T05:50:22;5.22;;;2.03;;
27365;SDS011;14837;57.148;-2.144;2023-03-01T05:52:49;2.35;;;1.20;;
27365;SDS011;14837;57.148;-2.144;2023-03-01T05:55:17;9.43;;;2.08;;
27365;SDS011;14837;57.148;-2.144;2023-03-01T05:57:44;4.63;;;1.30;;
27365;SDS011;14837;57.148;-2.144;2023-03-01T06:00:11;3.38;;;1.30;;
27365;SDS011;14837;57.148;-2.144;2023-03-01T06:02:38;3.17;;;1.42;;
27365;SDS011;14837;57.148;-2.144;2023-03-01T06:05:06;3.00;;;1.42;;
27365;SDS011;14837;57.148;-2.144;2023-03-01T06:07:33;4.82;;;1.70;;
27365;SDS011;14837;57.148;-2.144;2023-03-01T06:10:00;3.05;;;1.08;;
27365;SDS011;14837;57.148;-2.144;2023-03-01T06:12:29;6.88;;;1.45;;
27365;SDS011;14837;57.148;-2.144;2023-03-01T06:14:56;3.40;;;1.17;;
27365;SDS011;14837;57.148;-2.144;2023-03-01T06:17:23;6.57;;;1.95;;
27365;SDS011;14837;57.148;-2.144;2023-03-01T06:19:49;4.03;;;1.15;;
27365;SDS011;14837;57.148;-2.144;2023-03-01T06:22:16;3.70;;;1.33;;
27365;SDS011;14837;57.148;-2.144;2023-03-01T06:24:42;7.63;;;1.55;;
27365;SDS011;14837;57.148;-2.144;2023-03-01T06:27:09;3.05;;;1.85;;
27365;SDS011;14837;57.148;-2.144;2023-03-01T06:29:35;7.43;;;1.30;;
27365;SDS011;14837;57.148;-2.144;2023-03-01T06:32:02;6.70;;;4.05;;
27365;SDS011;14837;57.148;-2.144;2023-03-01T06:34:29;5.13;;;2.08;;
27365;SDS011;14837;57.148;-2.144;2023-03-01T06:36:55;5.10;;;1.95;;
27365;SDS011;14837;57.148;-2.144;2023-03-01T06:39:22;3.28;;;1.13;;
27365;SDS011;14837;57.148;-2.144;2023-03-01T06:41:49;4.63;;;3.15;;
27365;SDS011;14837;57.148;-2.144;2023-03-01T06:44:15;4.82;;;1.92;;
27365;SDS011;14837;57.148;-2.144;2023-03-01T06:46:42;8.55;;;3.55;;
27365;SDS011;14837;57.148;-2.144;2023-03-01T06:49:08;3.60;;;1.63;;
27365;SDS011;14837;57.148;-2.144;2023-03-01T06:51:36;5.45;;;3.08;;
27365;SDS011;14837;57.148;-2.144;2023-03-01T06:54:06;6.03;;;1.50;;
27365;SDS011;14837;57.148;-2.144;2023-03-01T06:56:32;1.13;;;0.47;;
27365;SDS011;14837;57.148;-2.144;2023-03-01T06:58:59;1.92;;;1.13;;
27365;SDS011;14837;57.148;-2.144;2023-03-01T07:01:26;3.05;;;0.98;;
27365;SDS011;14837;57.148;-2.144;2023-03-01T07:03:52;4.35;;;0.80;;
27365;SDS011;14837;57.148;-2.144;2023-03-01T07:06:19;1.23;;;0.43;;
27365;SDS011;14837;57.148;-2.144;2023-03-01T07:08:46;2.78;;;0.52;;
27365;SDS011;14837;57.148;-2.144;2023-03-01T07:11:13;2.50;;;0.70;;
27365;SDS011;14837;57.148;-2.144;2023-03-01T07:13:39;1.15;;;0.60;;
27365;SDS011;14837;57.148;-2.144;2023-03-01T07:16:06;5.40;;;0.60;;
27365;SDS011;14837;57.148;-2.144;2023-03-01T07:18:33;2.05;;;0.70;;
27365;SDS011;14837;57.148;-2.144;2023-03-01T07:21:09;0.82;;;0.60;;
27365;SDS011;14837;57.148;-2.144;2023-03-01T07:23:37;1.95;;;0.50;;
27365;SDS011;14837;57.148;-2.144;2023-03-01T07:26:04;2.03;;;0.60;;
27365;SDS011;14837;57.148;-2.144;2023-03-01T07:28:31;2.63;;;0.63;;
27365;SDS011;14837;57.148;-2.144;2023-03-01T07:31:01;1.13;;;0.60;;
27365;SDS011;14837;57.148;-2.144;2023-03-01T07:33:28;3.00;;;0.60;;
27365;SDS011;14837;57.148;-2.144;2023-03-01T07:35:55;1.00;;;0.77;;
27365;SDS011;14837;57.148;-2.144;2023-03-01T07:38:22;0.95;;;0.80;;
27365;SDS011;14837;57.148;-2.144;2023-03-01T07:40:49;3.25;;;1.10;;
27365;SDS011;14837;57.148;-2.144;2023-03-01T07:43:15;3.13;;;0.70;;
27365;SDS011;14837;57.148;-2.144;2023-03-01T07:45:42;1.38;;;0.70;;
27365;SDS011;14837;57.148;-2.144;2023-03-01T07:48:08;1.02;;;0.65;;
27365;SDS011;14837;57.148;-2.144;2023-03-01T07:50:35;3.47;;;1.00;;
27365;SDS011;14837;57.148;-2.144;2023-03-01T07:53:02;1.20;;;0.70;;
27365;SDS011;14837;57.148;-2.144;2023-03-01T07:55:29;1.58;;;0.70;;
27365;SDS011;14837;57.148;-2.144;2023-03-01T07:57:55;2.85;;;1.23;;
27365;SDS011;14837;57.148;-2.144;2023-03-01T08:00:22;2.33;;;0.85;;
27365;SDS011;14837;57.148;-2.144;2023-03-01T08:02:48;3.03;;;0.90;;
27365;SDS011;14837;57.148;-2.144;2023-03-01T08:05:15;1.20;;;0.80;;
27365;SDS011;14837;57.148;-2.144;2023-03-01T08:07:41;4.47;;;1.13;;
27365;SDS011;14837;57.148;-2.144;2023-03-01T08:10:08;1.52;;;1.08;;
27365;SDS011;14837;57.148;-2.144;2023-03-01T08:12:35;1.20;;;0.82;;
27365;SDS011;14837;57.148;-2.144;2023-03-01T08:15:01;0.90;;;0.70;;
27365;SDS011;14837;57.148;-2.144;2023-03-01T08:17:28;1.92;;;1.00;;
27365;SDS011;14837;57.148;-2.144;2023-03-01T08:19:55;3.08;;;1.00;;
27365;SDS011;14837;57.148;-2.144;2023-03-01T08:22:21;3.45;;;1.10;;
27365;SDS011;14837;57.148;-2.144;2023-03-01T08:24:48;2.85;;;1.40;;
27365;SDS011;14837;57.148;-2.144;2023-03-01T08:27:15;2.85;;;1.50;;
27365;SDS011;14837;57.148;-2.144;2023-03-01T08:29:41;1.48;;;0.60;;
27365;SDS011;14837;57.148;-2.144;2023-03-01T08:32:08;1.30;;;1.10;;
27365;SDS011;14837;57.148;-2.144;2023-03-01T08:34:35;1.77;;;1.00;;
27365;SDS011;14837;57.148;-2.144;2023-03-01T08:37:01;3.70;;;1.00;;
27365;SDS011;14837;57.148;-2.144;2023-03-01T08:39:28;3.10;;;0.90;;
27365;SDS011;14837;57.148;-2.144;2023-03-01T08:41:55;2.40;;;1.27;;
27365;SDS011;14837;57.148;-2.144;2023-03-01T08:44:21;1.73;;;1.15;;
27365;SDS011;14837;57.148;-2.144;2023-03-01T08:46:48;1.65;;;1.10;;
27365;SDS011;14837;57.148;-2.144;2023-03-01T08:49:16;10.30;;;5.32;;
27365;SDS011;14837;57.148;-2.144;2023-03-01T08:51:43;21.05;;;12.93;;
27365;SDS011;14837;57.148;-2.144;2023-03-01T08:54:11;10.70;;;6.53;;
27365;SDS011;14837;57.148;-2.144;2023-03-01T08:56:38;6.05;;;3.50;;
27365;SDS011;14837;57.148;-2.144;2023-03-01T08:59:04;6.78;;;2.55;;
27365;SDS011;14837;57.148;-2.144;2023-03-01T09:01:31;3.97;;;3.00;;
27365;SDS011;14837;57.148;-2.144;2023-03-01T09:03:58;3.03;;;2.28;;
27365;SDS011;14837;57.148;-2.144;2023-03-01T09:06:24;4.50;;;2.25;;
27365;SDS011;14837;57.148;-2.144;2023-03-01T09:08:51;2.90;;;1.70;;
27365;SDS011;14837;57.148;-2.144;2023-03-01T09:11:19;2.90;;;1.27;;
27365;SDS011;14837;57.148;-2.144;2023-03-01T09:13:47;2.33;;;1.08;;
27365;SDS011;14837;57.148;-2.144;2023-03-01T09:16:17;3.75;;;1.08;;
27365;SDS011;14837;57.148;-2.144;2023-03-01T09:18:48;1.73;;;0.77;;
27365;SDS011;14837;57.148;-2.144;2023-03-01T09:21:15;1.95;;;0.77;;
27365;SDS011;14837;57.148;-2.144;2023-03-01T09:23:45;2.95;;;1.45;;
27365;SDS011;14837;57.148;-2.144;2023-03-01T09:26:13;0.75;;;0.35;;
27365;SDS011;14837;57.148;-2.144;2023-03-01T09:28:40;3.20;;;0.73;;
27365;SDS011;14837;57.148;-2.144;2023-03-01T09:31:07;1.88;;;0.77;;
27365;SDS011;14837;57.148;-2.144;2023-03-01T09:33:34;1.80;;;0.60;;
27365;SDS011;14837;57.148;-2.144;2023-03-01T09:36:02;4.05;;;0.88;;
27365;SDS011;14837;57.148;-2.144;2023-03-01T09:38:29;2.20;;;0.90;;
27365;SDS011;14837;57.148;-2.144;2023-03-01T09:40:56;0.93;;;0.50;;
27365;SDS011;14837;57.148;-2.144;2023-03-01T09:45:49;2.60;;;1.23;;
27365;SDS011;14837;57.148;-2.144;2023-03-01T09:48:21;4.50;;;1.17;;
27365;SDS011;14837;57.148;-2.144;2023-03-01T09:50:50;5.38;;;1.08;;
27365;SDS011;14837;57.148;-2.144;2023-03-01T09:53:26;5.07;;;1.10;;
27365;SDS011;14837;57.148;-2.144;2023-03-01T09:55:55;3.47;;;0.88;;
27365;SDS011;14837;57.148;-2.144;2023-03-01T10:01:23;3.67;;;0.85;;
27365;SDS011;14837;57.148;-2.144;2023-03-01T10:04:18;1.67;;;0.63;;
27365;SDS011;14837;57.148;-2.144;2023-03-01T10:06:38;2.10;;;0.88;;
27365;SDS011;14837;57.148;-2.144;2023-03-01T10:09:11;4.72;;;2.13;;
27365;SDS011;14837;57.148;-2.144;2023-03-01T10:11:47;6.50;;;1.00;;
27365;SDS011;14837;57.148;-2.144;2023-03-01T10:14:35;2.22;;;1.13;;
27365;SDS011;14837;57.148;-2.144;2023-03-01T10:17:03;4.65;;;0.68;;
27365;SDS011;14837;57.148;-2.144;2023-03-01T10:22:12;2.10;;;1.00;;
27365;SDS011;14837;57.148;-2.144;2023-03-01T10:24:39;1.70;;;0.85;;
27365;SDS011;14837;57.148;-2.144;2023-03-01T10:27:53;1.27;;;0.90;;
27365;SDS011;14837;57.148;-2.144;2023-03-01T10:30:05;7.80;;;1.20;;
27365;SDS011;14837;57.148;-2.144;2023-03-01T10:32:33;3.53;;;0.90;;
27365;SDS011;14837;57.148;-2.144;2023-03-01T10:35:00;3.95;;;1.02;;
27365;SDS011;14837;57.148;-2.144;2023-03-01T10:37:27;2.55;;;1.25;;
27365;SDS011;14837;57.148;-2.144;2023-03-01T10:42:34;3.20;;;1.00;;
27365;SDS011;14837;57.148;-2.144;2023-03-01T10:45:15;3.72;;;1.27;;
27365;SDS011;14837;57.148;-2.144;2023-03-01T10:47:42;1.98;;;0.90;;
27365;SDS011;14837;57.148;-2.144;2023-03-01T10:50:21;2.25;;;1.02;;
27365;SDS011;14837;57.148;-2.144;2023-03-01T10:52:58;3.65;;;0.95;;
27365;SDS011;14837;57.148;-2.144;2023-03-01T10:55:47;4.68;;;1.33;;
27365;SDS011;14837;57.148;-2.144;2023-03-01T10:58:17;5.45;;;1.13;;
27365;SDS011;14837;57.148;-2.144;2023-03-01T11:00:50;3.45;;;0.88;;
27365;SDS011;14837;57.148;-2.144;2023-03-01T11:03:23;1.10;;;0.75;;
27365;SDS011;14837;57.148;-2.144;2023-03-01T11:08:30;3.78;;;1.08;;
27365;SDS011;14837;57.148;-2.144;2023-03-01T11:11:04;4.55;;;1.42;;
27365;SDS011;14837;57.148;-2.144;2023-03-01T11:13:31;1.75;;;0.90;;
27365;SDS011;14837;57.148;-2.144;2023-03-01T11:16:05;0.95;;;0.52;;
27365;SDS011;14837;57.148;-2.144;2023-03-01T11:18:33;2.42;;;0.80;;
27365;SDS011;14837;57.148;-2.144;2023-03-01T11:21:13;3.15;;;0.85;;
27365;SDS011;14837;57.148;-2.144;2023-03-01T11:23:41;2.40;;;0.90;;
27365;SDS011;14837;57.148;-2.144;2023-03-01T11:26:09;1.02;;;0.60;;
27365;SDS011;14837;57.148;-2.144;2023-03-01T11:28:38;3.42;;;0.82;;
27365;SDS011;14837;57.148;-2.144;2023-03-01T11:31:07;3.47;;;0.63;;
27365;SDS011;14837;57.148;-2.144;2023-03-01T11:33:58;3.50;;;1.05;;
27365;SDS011;14837;57.148;-2.144;2023-03-01T11:36:34;3.00;;;0.70;;
27365;SDS011;14837;57.148;-2.144;2023-03-01T11:39:02;1.15;;;0.50;;
27365;SDS011;14837;57.148;-2.144;2023-03-01T11:41:30;3.25;;;1.63;;
27365;SDS011;14837;57.148;-2.144;2023-03-01T11:44:03;7.32;;;2.60;;
27365;SDS011;14837;57.148;-2.144;2023-03-01T11:49:13;2.63;;;1.00;;
27365;SDS011;14837;57.148;-2.144;2023-03-01T12:15:08;5.78;;;1.20;;
27365;SDS011;14837;57.148;-2.144;2023-03-01T12:20:28;2.65;;;1.10;;
27365;SDS011;14837;57.148;-2.144;2023-03-01T12:28:39;2.35;;;0.80;;
27365;SDS011;14837;57.148;-2.144;2023-03-01T12:39:03;5.15;;;1.13;;
27365;SDS011;14837;57.148;-2.144;2023-03-01T12:49:30;4.32;;;2.35;;
27365;SDS011;14837;57.148;-2.144;2023-03-01T12:54:31;3.80;;;1.98;;
27365;SDS011;14837;57.148;-2.144;2023-03-01T13:00:10;4.20;;;1.17;;
27365;SDS011;14837;57.148;-2.144;2023-03-01T13:07:48;5.00;;;1.65;;
27365;SDS011;14837;57.148;-2.144;2023-03-01T13:10:19;3.88;;;1.25;;
27365;SDS011;14837;57.148;-2.144;2023-03-01T13:17:49;1.65;;;0.75;;
27365;SDS011;14837;57.148;-2.144;2023-03-01T13:20:17;8.10;;;1.60;;
27365;SDS011;14837;57.148;-2.144;2023-03-01T13:22:46;5.05;;;1.33;;
27365;SDS011;14837;57.148;-2.144;2023-03-01T13:25:20;3.70;;;1.33;;
27365;SDS011;14837;57.148;-2.144;2023-03-01T13:27:48;3.28;;;1.50;;
27365;SDS011;14837;57.148;-2.144;2023-03-01T13:35:44;6.15;;;1.30;;
27365;SDS011;14837;57.148;-2.144;2023-03-01T13:40:58;3.55;;;1.50;;
27365;SDS011;14837;57.148;-2.144;2023-03-01T13:43:29;7.30;;;1.80;;
27365;SDS011;14837;57.148;-2.144;2023-03-01T13:45:56;4.60;;;1.27;;
27365;SDS011;14837;57.148;-2.144;2023-03-01T13:48:25;6.95;;;1.50;;
27365;SDS011;14837;57.148;-2.144;2023-03-01T13:50:59;9.20;;;1.65;;
27365;SDS011;14837;57.148;-2.144;2023-03-01T13:53:29;6.55;;;1.30;;
27365;SDS011;14837;57.148;-2.144;2023-03-01T13:56:33;2.72;;;1.67;;
27365;SDS011;14837;57.148;-2.144;2023-03-01T13:58:51;2.97;;;1.10;;
27365;SDS011;14837;57.148;-2.144;2023-03-01T14:01:22;6.43;;;1.48;;
27365;SDS011;14837;57.148;-2.144;2023-03-01T14:03:49;4.10;;;1.02;;
27365;SDS011;14837;57.148;-2.144;2023-03-01T14:06:18;4.30;;;1.40;;
27365;SDS011;14837;57.148;-2.144;2023-03-01T14:08:47;9.60;;;1.60;;
27365;SDS011;14837;57.148;-2.144;2023-03-01T14:11:22;7.47;;;1.27;;
27365;SDS011;14837;57.148;-2.144;2023-03-01T14:18:51;6.50;;;2.33;;
27365;SDS011;14837;57.148;-2.144;2023-03-01T14:23:45;26.77;;;13.18;;
27365;SDS011;14837;57.148;-2.144;2023-03-01T14:26:13;7.72;;;3.90;;
27365;SDS011;14837;57.148;-2.144;2023-03-01T14:28:39;24.42;;;11.13;;
27365;SDS011;14837;57.148;-2.144;2023-03-01T14:33:54;35.80;;;16.48;;
27365;SDS011;14837;57.148;-2.144;2023-03-01T14:36:26;20.20;;;10.05;;
27365;SDS011;14837;57.148;-2.144;2023-03-01T14:38:53;10.40;;;5.97;;
27365;SDS011;14837;57.148;-2.144;2023-03-01T14:41:24;6.13;;;4.03;;
27365;SDS011;14837;57.148;-2.144;2023-03-01T14:43:52;8.27;;;2.65;;
27365;SDS011;14837;57.148;-2.144;2023-03-01T14:46:20;7.30;;;2.35;;
27365;SDS011;14837;57.148;-2.144;2023-03-01T14:48:49;5.55;;;1.80;;
27365;SDS011;14837;57.148;-2.144;2023-03-01T14:51:15;5.28;;;2.10;;
27365;SDS011;14837;57.148;-2.144;2023-03-01T14:53:42;9.18;;;2.05;;
27365;SDS011;14837;57.148;-2.144;2023-03-01T14:56:16;7.82;;;1.63;;
27365;SDS011;14837;57.148;-2.144;2023-03-01T14:58:46;8.35;;;1.48;;
27365;SDS011;14837;57.148;-2.144;2023-03-01T15:01:16;10.93;;;4.05;;
27365;SDS011;14837;57.148;-2.144;2023-03-01T15:03:44;2.83;;;1.50;;
27365;SDS011;14837;57.148;-2.144;2023-03-01T15:06:14;4.70;;;1.50;;
27365;SDS011;14837;57.148;-2.144;2023-03-01T15:08:42;5.65;;;1.30;;
27365;SDS011;14837;57.148;-2.144;2023-03-01T15:11:21;8.45;;;1.60;;
27365;SDS011;14837;57.148;-2.144;2023-03-01T15:13:51;4.30;;;1.73;;
27365;SDS011;14837;57.148;-2.144;2023-03-01T15:16:19;3.90;;;1.58;;
27365;SDS011;14837;57.148;-2.144;2023-03-01T15:18:47;6.68;;;1.52;;
27365;SDS011;14837;57.148;-2.144;2023-03-01T15:21:16;5.78;;;1.58;;
27365;SDS011;14837;57.148;-2.144;2023-03-01T15:23:47;7.32;;;1.67;;
27365;SDS011;14837;57.148;-2.144;2023-03-01T15:26:22;11.30;;;2.75;;
27365;SDS011;14837;57.148;-2.144;2023-03-01T15:28:49;11.65;;;1.98;;
27365;SDS011;14837;57.148;-2.144;2023-03-01T15:31:20;8.57;;;1.70;;
27365;SDS011;14837;57.148;-2.144;2023-03-01T15:33:49;5.13;;;1.40;;
27365;SDS011;14837;57.148;-2.144;2023-03-01T15:38:58;3.33;;;1.13;;
27365;SDS011;14837;57.148;-2.144;2023-03-01T15:41:36;9.40;;;1.75;;
27365;SDS011;14837;57.148;-2.144;2023-03-01T15:46:51;8.55;;;2.15;;
27365;SDS011;14837;57.148;-2.144;2023-03-01T15:52:42;3.75;;;1.40;;
27365;SDS011;14837;57.148;-2.144;2023-03-01T15:55:06;3.70;;;1.50;;
27365;SDS011;14837;57.148;-2.144;2023-03-01T15:57:40;2.97;;;1.33;;
27365;SDS011;14837;57.148;-2.144;2023-03-01T16:00:09;1.80;;;0.80;;
27365;SDS011;14837;57.148;-2.144;2023-03-01T16:02:40;4.80;;;0.93;;
27365;SDS011;14837;57.148;-2.144;2023-03-01T16:07:49;4.35;;;1.10;;
27365;SDS011;14837;57.148;-2.144;2023-03-01T16:10:16;2.55;;;0.90;;
27365;SDS011;14837;57.148;-2.144;2023-03-01T16:12:43;2.67;;;0.85;;
27365;SDS011;14837;57.148;-2.144;2023-03-01T16:15:26;2.78;;;1.00;;
27365;SDS011;14837;57.148;-2.144;2023-03-01T16:17:56;1.55;;;0.88;;
27365;SDS011;14837;57.148;-2.144;2023-03-01T16:20:24;5.80;;;1.00;;
27365;SDS011;14837;57.148;-2.144;2023-03-01T16:22:57;3.13;;;0.90;;
27365;SDS011;14837;57.148;-2.144;2023-03-01T16:25:24;4.30;;;1.10;;
27365;SDS011;14837;57.148;-2.144;2023-03-01T16:27:51;5.97;;;1.23;;
27365;SDS011;14837;57.148;-2.144;2023-03-01T16:30:19;1.88;;;0.80;;
27365;SDS011;14837;57.148;-2.144;2023-03-01T16:32:46;5.38;;;1.27;;
27365;SDS011;14837;57.148;-2.144;2023-03-01T16:35:14;4.07;;;1.33;;
27365;SDS011;14837;57.148;-2.144;2023-03-01T16:37:41;3.53;;;1.13;;
27365;SDS011;14837;57.148;-2.144;2023-03-01T16:40:24;5.18;;;1.40;;
27365;SDS011;14837;57.148;-2.144;2023-03-01T16:42:53;4.00;;;1.30;;
27365;SDS011;14837;57.148;-2.144;2023-03-01T16:45:21;4.60;;;1.42;;